Terminal Aerodrome Forecast
Issued by NWS

Home | Current Version | Previous Version | Text Only | Print | Product List | Glossary On
Versions: 1 2 3 4 5 6 7 8 9 10 11 12
000
FTUS42 TJSJ 172300
TAFISX
TAF
TISX 172338Z 1800/1824 05005KT P6SM SCT025
     FM181530 11013G22KT P6SM VCTS SCT025CB BKN040
     FM182300 09006KT P6SM VCSH SCT025 SCT040=

USA.gov is the U.S. government's official web portal to all federal, state and local government web resources and services.